sensor_id;sensor_type;location;lat;lon;timestamp;temperature;humidity
74657;DHT22;63185;45.642;13.764;2022-11-09T00:02:22;16.20;61.30
74657;DHT22;63185;45.642;13.764;2022-11-09T00:04:48;16.20;61.10
74657;DHT22;63185;45.642;13.764;2022-11-09T00:07:14;16.20;61.10
74657;DHT22;63185;45.642;13.764;2022-11-09T00:09:40;16.20;61.20
74657;DHT22;63185;45.642;13.764;2022-11-09T00:12:06;16.30;61.20
74657;DHT22;63185;45.642;13.764;2022-11-09T00:14:33;16.30;61.10
74657;DHT22;63185;45.642;13.764;2022-11-09T00:16:59;16.30;61.20
74657;DHT22;63185;45.642;13.764;2022-11-09T00:19:25;16.30;61.20
74657;DHT22;63185;45.642;13.764;2022-11-09T00:21:51;16.30;61.50
74657;DHT22;63185;45.642;13.764;2022-11-09T00:24:17;16.30;61.40
74657;DHT22;63185;45.642;13.764;2022-11-09T00:26:42;16.30;61.40
74657;DHT22;63185;45.642;13.764;2022-11-09T00:29:08;16.30;61.90
74657;DHT22;63185;45.642;13.764;2022-11-09T00:31:34;16.30;61.90
74657;DHT22;63185;45.642;13.764;2022-11-09T00:34:00;16.30;62.20
74657;DHT22;63185;45.642;13.764;2022-11-09T00:36:27;16.30;62.30
74657;DHT22;63185;45.642;13.764;2022-11-09T00:38:58;16.40;62.20
74657;DHT22;63185;45.642;13.764;2022-11-09T00:41:24;16.40;62.50
74657;DHT22;63185;45.642;13.764;2022-11-09T00:43:51;16.40;62.60
74657;DHT22;63185;45.642;13.764;2022-11-09T00:46:17;16.40;62.90
74657;DHT22;63185;45.642;13.764;2022-11-09T00:48:43;16.40;63.00
74657;DHT22;63185;45.642;13.764;2022-11-09T00:51:09;16.50;63.10
74657;DHT22;63185;45.642;13.764;2022-11-09T00:53:35;16.50;63.30
74657;DHT22;63185;45.642;13.764;2022-11-09T00:56:06;16.50;63.60
74657;DHT22;63185;45.642;13.764;2022-11-09T00:58:35;16.40;63.70
74657;DHT22;63185;45.642;13.764;2022-11-09T01:01:07;16.50;63.80
74657;DHT22;63185;45.642;13.764;2022-11-09T01:03:33;16.50;64.00
74657;DHT22;63185;45.642;13.764;2022-11-09T01:05:59;16.50;64.20
74657;DHT22;63185;45.642;13.764;2022-11-09T01:08:25;16.50;64.50
74657;DHT22;63185;45.642;13.764;2022-11-09T01:10:50;16.50;64.50
74657;DHT22;63185;45.642;13.764;2022-11-09T01:13:17;16.50;64.60
74657;DHT22;63185;45.642;13.764;2022-11-09T01:15:48;16.50;65.00
74657;DHT22;63185;45.642;13.764;2022-11-09T01:18:15;16.50;65.30
74657;DHT22;63185;45.642;13.764;2022-11-09T01:20:43;16.50;65.50
74657;DHT22;63185;45.642;13.764;2022-11-09T01:23:10;16.50;65.70
74657;DHT22;63185;45.642;13.764;2022-11-09T01:25:36;16.50;66.00
74657;DHT22;63185;45.642;13.764;2022-11-09T01:28:03;16.60;65.90
74657;DHT22;63185;45.642;13.764;2022-11-09T01:30:32;16.60;66.10
74657;DHT22;63185;45.642;13.764;2022-11-09T01:32:58;16.60;66.20
74657;DHT22;63185;45.642;13.764;2022-11-09T01:35:24;16.60;66.50
74657;DHT22;63185;45.642;13.764;2022-11-09T01:37:49;16.60;66.60
74657;DHT22;63185;45.642;13.764;2022-11-09T01:40:15;16.60;66.70
74657;DHT22;63185;45.642;13.764;2022-11-09T01:42:41;16.60;66.80
74657;DHT22;63185;45.642;13.764;2022-11-09T01:45:28;16.60;67.00
74657;DHT22;63185;45.642;13.764;2022-11-09T01:48:04;16.70;67.00
74657;DHT22;63185;45.642;13.764;2022-11-09T01:50:40;16.70;67.00
74657;DHT22;63185;45.642;13.764;2022-11-09T01:53:13;16.70;67.30
74657;DHT22;63185;45.642;13.764;2022-11-09T01:55:40;16.60;67.60
74657;DHT22;63185;45.642;13.764;2022-11-09T01:58:11;16.60;67.50
74657;DHT22;63185;45.642;13.764;2022-11-09T02:00:41;16.60;67.50
74657;DHT22;63185;45.642;13.764;2022-11-09T02:03:11;16.60;68.00
74657;DHT22;63185;45.642;13.764;2022-11-09T02:05:39;16.60;67.90
74657;DHT22;63185;45.642;13.764;2022-11-09T02:08:06;16.70;67.70
74657;DHT22;63185;45.642;13.764;2022-11-09T02:11:02;16.70;67.60
74657;DHT22;63185;45.642;13.764;2022-11-09T02:13:29;16.70;67.60
74657;DHT22;63185;45.642;13.764;2022-11-09T02:15:56;16.70;67.60
74657;DHT22;63185;45.642;13.764;2022-11-09T02:18:21;16.70;67.70
74657;DHT22;63185;45.642;13.764;2022-11-09T02:20:55;16.60;67.90
74657;DHT22;63185;45.642;13.764;2022-11-09T02:23:23;16.60;68.20
74657;DHT22;63185;45.642;13.764;2022-11-09T02:26:11;16.70;68.30
74657;DHT22;63185;45.642;13.764;2022-11-09T02:28:38;16.70;68.60
74657;DHT22;63185;45.642;13.764;2022-11-09T02:31:07;16.60;68.90
74657;DHT22;63185;45.642;13.764;2022-11-09T02:33:51;16.60;68.70
74657;DHT22;63185;45.642;13.764;2022-11-09T02:36:18;16.70;68.40
74657;DHT22;63185;45.642;13.764;2022-11-09T02:38:43;16.70;68.50
74657;DHT22;63185;45.642;13.764;2022-11-09T02:41:11;16.70;68.30
74657;DHT22;63185;45.642;13.764;2022-11-09T02:43:38;16.70;68.40
74657;DHT22;63185;45.642;13.764;2022-11-09T02:46:03;16.70;68.50
74657;DHT22;63185;45.642;13.764;2022-11-09T02:48:29;16.70;68.70
74657;DHT22;63185;45.642;13.764;2022-11-09T02:50:55;16.70;68.60
74657;DHT22;63185;45.642;13.764;2022-11-09T02:53:20;16.70;68.60
74657;DHT22;63185;45.642;13.764;2022-11-09T02:55:46;16.70;68.70
74657;DHT22;63185;45.642;13.764;2022-11-09T02:58:12;16.70;69.10
74657;DHT22;63185;45.642;13.764;2022-11-09T03:00:37;16.70;69.20
74657;DHT22;63185;45.642;13.764;2022-11-09T03:03:03;16.70;69.30
74657;DHT22;63185;45.642;13.764;2022-11-09T03:05:29;16.70;69.40
74657;DHT22;63185;45.642;13.764;2022-11-09T03:07:54;16.70;69.30
74657;DHT22;63185;45.642;13.764;2022-11-09T03:10:21;16.70;69.40
74657;DHT22;63185;45.642;13.764;2022-11-09T03:12:47;16.70;69.30
74657;DHT22;63185;45.642;13.764;2022-11-09T03:15:13;16.80;69.20
74657;DHT22;63185;45.642;13.764;2022-11-09T03:17:39;16.70;69.20
74657;DHT22;63185;45.642;13.764;2022-11-09T03:20:08;16.70;69.30
74657;DHT22;63185;45.642;13.764;2022-11-09T03:22:34;16.70;69.40
74657;DHT22;63185;45.642;13.764;2022-11-09T03:24:59;16.60;69.50
74657;DHT22;63185;45.642;13.764;2022-11-09T03:27:25;16.60;69.60
74657;DHT22;63185;45.642;13.764;2022-11-09T03:29:51;16.70;69.70
74657;DHT22;63185;45.642;13.764;2022-11-09T03:32:16;16.70;69.50
74657;DHT22;63185;45.642;13.764;2022-11-09T03:34:42;16.70;69.60
74657;DHT22;63185;45.642;13.764;2022-11-09T03:37:08;16.70;69.50
74657;DHT22;63185;45.642;13.764;2022-11-09T03:39:33;16.80;69.60
74657;DHT22;63185;45.642;13.764;2022-11-09T03:41:59;16.80;69.70
74657;DHT22;63185;45.642;13.764;2022-11-09T03:44:25;16.80;69.70
74657;DHT22;63185;45.642;13.764;2022-11-09T03:46:51;16.90;69.60
74657;DHT22;63185;45.642;13.764;2022-11-09T03:49:17;16.80;69.70
74657;DHT22;63185;45.642;13.764;2022-11-09T03:51:43;16.90;69.50
74657;DHT22;63185;45.642;13.764;2022-11-09T03:54:09;16.90;69.60
74657;DHT22;63185;45.642;13.764;2022-11-09T03:56:34;16.90;69.50
74657;DHT22;63185;45.642;13.764;2022-11-09T03:59:00;16.90;69.50
74657;DHT22;63185;45.642;13.764;2022-11-09T04:01:26;17.00;69.50
74657;DHT22;63185;45.642;13.764;2022-11-09T04:03:51;17.00;69.50
74657;DHT22;63185;45.642;13.764;2022-11-09T04:06:17;16.90;69.70
74657;DHT22;63185;45.642;13.764;2022-11-09T04:08:43;16.90;70.00
74657;DHT22;63185;45.642;13.764;2022-11-09T04:11:08;16.90;70.00
74657;DHT22;63185;45.642;13.764;2022-11-09T04:13:34;17.00;69.80
74657;DHT22;63185;45.642;13.764;2022-11-09T04:16:00;16.90;69.90
74657;DHT22;63185;45.642;13.764;2022-11-09T04:18:25;17.00;69.90
74657;DHT22;63185;45.642;13.764;2022-11-09T04:20:51;16.90;70.20
74657;DHT22;63185;45.642;13.764;2022-11-09T04:23:16;16.90;70.70
74657;DHT22;63185;45.642;13.764;2022-11-09T04:25:42;16.90;70.70
74657;DHT22;63185;45.642;13.764;2022-11-09T04:28:10;16.90;71.10
74657;DHT22;63185;45.642;13.764;2022-11-09T04:30:38;17.00;71.10
74657;DHT22;63185;45.642;13.764;2022-11-09T04:33:03;17.10;71.00
74657;DHT22;63185;45.642;13.764;2022-11-09T04:35:31;17.10;70.90
74657;DHT22;63185;45.642;13.764;2022-11-09T04:38:00;17.10;71.10
74657;DHT22;63185;45.642;13.764;2022-11-09T04:40:28;17.20;71.10
74657;DHT22;63185;45.642;13.764;2022-11-09T04:42:54;17.30;71.00
74657;DHT22;63185;45.642;13.764;2022-11-09T04:45:21;17.20;71.10
74657;DHT22;63185;45.642;13.764;2022-11-09T04:47:47;17.20;71.30
74657;DHT22;63185;45.642;13.764;2022-11-09T04:50:13;17.20;71.30
74657;DHT22;63185;45.642;13.764;2022-11-09T04:52:39;17.20;71.40
74657;DHT22;63185;45.642;13.764;2022-11-09T04:55:05;17.20;71.60
74657;DHT22;63185;45.642;13.764;2022-11-09T04:57:31;17.20;71.70
74657;DHT22;63185;45.642;13.764;2022-11-09T04:59:56;17.20;71.90
74657;DHT22;63185;45.642;13.764;2022-11-09T05:02:22;17.30;72.00
74657;DHT22;63185;45.642;13.764;2022-11-09T05:04:48;17.40;71.80
74657;DHT22;63185;45.642;13.764;2022-11-09T05:07:13;17.40;71.70
74657;DHT22;63185;45.642;13.764;2022-11-09T05:09:39;17.40;72.10
74657;DHT22;63185;45.642;13.764;2022-11-09T05:12:05;17.30;72.60
74657;DHT22;63185;45.642;13.764;2022-11-09T05:14:31;17.40;72.10
74657;DHT22;63185;45.642;13.764;2022-11-09T05:16:56;17.60;71.90
74657;DHT22;63185;45.642;13.764;2022-11-09T05:19:22;17.50;72.20
74657;DHT22;63185;45.642;13.764;2022-11-09T05:21:48;17.50;72.20
74657;DHT22;63185;45.642;13.764;2022-11-09T05:24:14;17.50;72.20
74657;DHT22;63185;45.642;13.764;2022-11-09T05:26:40;17.60;72.00
74657;DHT22;63185;45.642;13.764;2022-11-09T05:29:09;17.60;71.90
74657;DHT22;63185;45.642;13.764;2022-11-09T05:31:35;17.60;72.00
74657;DHT22;63185;45.642;13.764;2022-11-09T05:34:02;17.60;72.10
74657;DHT22;63185;45.642;13.764;2022-11-09T05:36:28;17.50;72.10
74657;DHT22;63185;45.642;13.764;2022-11-09T05:38:55;17.50;72.60
74657;DHT22;63185;45.642;13.764;2022-11-09T05:41:21;17.50;72.60
74657;DHT22;63185;45.642;13.764;2022-11-09T05:43:48;17.50;72.50
74657;DHT22;63185;45.642;13.764;2022-11-09T05:46:15;17.50;72.70
74657;DHT22;63185;45.642;13.764;2022-11-09T05:48:42;17.40;72.80
74657;DHT22;63185;45.642;13.764;2022-11-09T05:51:09;17.40;72.70
74657;DHT22;63185;45.642;13.764;2022-11-09T05:53:35;17.40;72.90
74657;DHT22;63185;45.642;13.764;2022-11-09T05:56:06;17.50;72.70
74657;DHT22;63185;45.642;13.764;2022-11-09T05:58:33;17.50;72.80
74657;DHT22;63185;45.642;13.764;2022-11-09T06:01:03;17.40;72.90
74657;DHT22;63185;45.642;13.764;2022-11-09T06:03:28;17.50;72.90
74657;DHT22;63185;45.642;13.764;2022-11-09T06:05:58;17.50;72.80
74657;DHT22;63185;45.642;13.764;2022-11-09T06:08:24;17.50;72.80
74657;DHT22;63185;45.642;13.764;2022-11-09T06:10:49;17.50;72.80
74657;DHT22;63185;45.642;13.764;2022-11-09T06:13:15;17.50;73.00
74657;DHT22;63185;45.642;13.764;2022-11-09T06:15:41;17.50;73.10
74657;DHT22;63185;45.642;13.764;2022-11-09T06:18:06;17.50;73.10
74657;DHT22;63185;45.642;13.764;2022-11-09T06:20:32;17.50;73.00
74657;DHT22;63185;45.642;13.764;2022-11-09T06:23:00;17.60;72.90
74657;DHT22;63185;45.642;13.764;2022-11-09T06:25:26;17.60;72.90
74657;DHT22;63185;45.642;13.764;2022-11-09T06:27:54;17.60;72.90
74657;DHT22;63185;45.642;13.764;2022-11-09T06:30:21;17.60;72.80
74657;DHT22;63185;45.642;13.764;2022-11-09T06:32:47;17.70;72.80
74657;DHT22;63185;45.642;13.764;2022-11-09T06:35:13;17.60;72.80
74657;DHT22;63185;45.642;13.764;2022-11-09T06:37:38;17.70;72.70
74657;DHT22;63185;45.642;13.764;2022-11-09T06:40:04;17.70;72.70
74657;DHT22;63185;45.642;13.764;2022-11-09T06:42:30;17.70;72.60
74657;DHT22;63185;45.642;13.764;2022-11-09T06:44:56;17.60;72.90
74657;DHT22;63185;45.642;13.764;2022-11-09T06:47:21;17.70;72.70
74657;DHT22;63185;45.642;13.764;2022-11-09T06:49:47;17.70;72.70
74657;DHT22;63185;45.642;13.764;2022-11-09T06:52:13;17.70;72.70
74657;DHT22;63185;45.642;13.764;2022-11-09T06:54:38;17.60;72.90
74657;DHT22;63185;45.642;13.764;2022-11-09T06:57:04;17.70;72.80
74657;DHT22;63185;45.642;13.764;2022-11-09T06:59:30;17.70;72.90
74657;DHT22;63185;45.642;13.764;2022-11-09T07:01:55;17.70;72.80
74657;DHT22;63185;45.642;13.764;2022-11-09T07:04:21;17.70;72.80
74657;DHT22;63185;45.642;13.764;2022-11-09T07:06:47;17.70;72.80
74657;DHT22;63185;45.642;13.764;2022-11-09T07:09:13;17.70;73.00
74657;DHT22;63185;45.642;13.764;2022-11-09T07:11:38;17.60;73.40
74657;DHT22;63185;45.642;13.764;2022-11-09T07:14:04;17.70;73.20
74657;DHT22;63185;45.642;13.764;2022-11-09T07:16:30;17.70;73.20
74657;DHT22;63185;45.642;13.764;2022-11-09T07:18:56;17.80;73.20
74657;DHT22;63185;45.642;13.764;2022-11-09T07:21:22;17.80;73.10
74657;DHT22;63185;45.642;13.764;2022-11-09T07:23:48;17.80;73.10
74657;DHT22;63185;45.642;13.764;2022-11-09T07:26:15;17.80;72.90
74657;DHT22;63185;45.642;13.764;2022-11-09T07:28:41;17.90;72.90
74657;DHT22;63185;45.642;13.764;2022-11-09T07:31:08;17.90;73.00
74657;DHT22;63185;45.642;13.764;2022-11-09T07:33:34;17.90;72.90
74657;DHT22;63185;45.642;13.764;2022-11-09T07:36:02;18.00;72.90
74657;DHT22;63185;45.642;13.764;2022-11-09T07:38:28;18.00;72.90
74657;DHT22;63185;45.642;13.764;2022-11-09T07:40:58;18.10;72.60
74657;DHT22;63185;45.642;13.764;2022-11-09T07:43:24;18.10;72.60
74657;DHT22;63185;45.642;13.764;2022-11-09T07:45:50;18.10;72.60
74657;DHT22;63185;45.642;13.764;2022-11-09T07:48:16;18.20;72.40
74657;DHT22;63185;45.642;13.764;2022-11-09T07:50:42;18.20;72.30
74657;DHT22;63185;45.642;13.764;2022-11-09T07:53:11;18.30;72.10
74657;DHT22;63185;45.642;13.764;2022-11-09T07:55:37;18.30;72.00
74657;DHT22;63185;45.642;13.764;2022-11-09T07:58:05;18.40;71.80
74657;DHT22;63185;45.642;13.764;2022-11-09T08:00:33;18.40;71.80
74657;DHT22;63185;45.642;13.764;2022-11-09T08:02:59;18.40;71.80
74657;DHT22;63185;45.642;13.764;2022-11-09T08:05:25;18.40;71.90
74657;DHT22;63185;45.642;13.764;2022-11-09T08:07:56;18.40;71.90
74657;DHT22;63185;45.642;13.764;2022-11-09T08:10:23;18.40;71.90
74657;DHT22;63185;45.642;13.764;2022-11-09T08:12:56;18.50;71.90
74657;DHT22;63185;45.642;13.764;2022-11-09T08:15:22;18.40;72.10
74657;DHT22;63185;45.642;13.764;2022-11-09T08:17:48;18.50;72.20
74657;DHT22;63185;45.642;13.764;2022-11-09T08:20:15;18.50;72.20
74657;DHT22;63185;45.642;13.764;2022-11-09T08:22:42;18.50;72.30
74657;DHT22;63185;45.642;13.764;2022-11-09T08:25:09;18.50;72.30
74657;DHT22;63185;45.642;13.764;2022-11-09T08:27:35;18.50;72.30
74657;DHT22;63185;45.642;13.764;2022-11-09T08:30:07;18.60;71.90
74657;DHT22;63185;45.642;13.764;2022-11-09T08:32:33;18.60;72.20
74657;DHT22;63185;45.642;13.764;2022-11-09T08:34:59;18.60;71.90
74657;DHT22;63185;45.642;13.764;2022-11-09T08:37:24;18.70;71.80
74657;DHT22;63185;45.642;13.764;2022-11-09T08:39:50;18.70;71.80
74657;DHT22;63185;45.642;13.764;2022-11-09T08:42:16;18.70;71.90
74657;DHT22;63185;45.642;13.764;2022-11-09T08:44:41;18.60;72.30
74657;DHT22;63185;45.642;13.764;2022-11-09T08:47:07;18.70;72.10
74657;DHT22;63185;45.642;13.764;2022-11-09T08:49:33;18.70;72.10
74657;DHT22;63185;45.642;13.764;2022-11-09T08:51:59;18.70;72.30
74657;DHT22;63185;45.642;13.764;2022-11-09T08:54:25;18.70;72.40
74657;DHT22;63185;45.642;13.764;2022-11-09T08:56:54;18.60;72.50
74657;DHT22;63185;45.642;13.764;2022-11-09T08:59:20;18.60;73.00
74657;DHT22;63185;45.642;13.764;2022-11-09T09:01:46;18.60;72.80
74657;DHT22;63185;45.642;13.764;2022-11-09T09:04:12;18.70;72.80
74657;DHT22;63185;45.642;13.764;2022-11-09T09:06:37;18.60;73.00
74657;DHT22;63185;45.642;13.764;2022-11-09T09:09:03;18.70;73.00
74657;DHT22;63185;45.642;13.764;2022-11-09T09:11:29;18.70;73.00
74657;DHT22;63185;45.642;13.764;2022-11-09T09:13:55;18.70;73.20
74657;DHT22;63185;45.642;13.764;2022-11-09T09:16:20;18.80;73.20
74657;DHT22;63185;45.642;13.764;2022-11-09T09:18:47;18.90;72.90
74657;DHT22;63185;45.642;13.764;2022-11-09T09:21:13;19.00;73.10
74657;DHT22;63185;45.642;13.764;2022-11-09T09:23:39;19.10;72.60
74657;DHT22;63185;45.642;13.764;2022-11-09T09:26:05;19.10;72.50
74657;DHT22;63185;45.642;13.764;2022-11-09T09:28:31;19.10;72.70
74657;DHT22;63185;45.642;13.764;2022-11-09T09:31:00;19.20;72.40
74657;DHT22;63185;45.642;13.764;2022-11-09T09:33:27;19.20;72.40
74657;DHT22;63185;45.642;13.764;2022-11-09T09:35:56;19.20;72.20
74657;DHT22;63185;45.642;13.764;2022-11-09T09:38:22;19.20;72.30
74657;DHT22;63185;45.642;13.764;2022-11-09T09:40:59;19.10;72.80
74657;DHT22;63185;45.642;13.764;2022-11-09T09:43:39;19.10;73.00
74657;DHT22;63185;45.642;13.764;2022-11-09T09:46:25;19.20;72.70
74657;DHT22;63185;45.642;13.764;2022-11-09T09:48:56;19.10;72.90
74657;DHT22;63185;45.642;13.764;2022-11-09T09:51:34;19.10;72.90
74657;DHT22;63185;45.642;13.764;2022-11-09T09:54:15;19.00;74.10
74657;DHT22;63185;45.642;13.764;2022-11-09T09:56:43;19.00;74.40
74657;DHT22;63185;45.642;13.764;2022-11-09T10:01:40;18.90;74.50
74657;DHT22;63185;45.642;13.764;2022-11-09T10:12:20;18.80;73.70
74657;DHT22;63185;45.642;13.764;2022-11-09T10:15:03;18.80;73.90
74657;DHT22;63185;45.642;13.764;2022-11-09T10:17:44;18.80;74.00
74657;DHT22;63185;45.642;13.764;2022-11-09T10:25:38;18.80;74.30
74657;DHT22;63185;45.642;13.764;2022-11-09T10:28:10;18.80;74.40
74657;DHT22;63185;45.642;13.764;2022-11-09T10:30:38;18.70;74.50
74657;DHT22;63185;45.642;13.764;2022-11-09T10:38:34;18.90;74.30
74657;DHT22;63185;45.642;13.764;2022-11-09T10:43:45;19.00;73.60
74657;DHT22;63185;45.642;13.764;2022-11-09T10:46:11;19.00;73.60
74657;DHT22;63185;45.642;13.764;2022-11-09T10:48:39;19.10;73.30
74657;DHT22;63185;45.642;13.764;2022-11-09T10:51:24;19.20;72.00
74657;DHT22;63185;45.642;13.764;2022-11-09T10:56:44;19.40;72.10
74657;DHT22;63185;45.642;13.764;2022-11-09T10:59:53;19.50;71.80
74657;DHT22;63185;45.642;13.764;2022-11-09T11:07:43;19.60;71.40
74657;DHT22;63185;45.642;13.764;2022-11-09T11:12:50;19.60;71.10
74657;DHT22;63185;45.642;13.764;2022-11-09T11:15:38;19.70;70.50
74657;DHT22;63185;45.642;13.764;2022-11-09T11:20:43;19.90;70.00
74657;DHT22;63185;45.642;13.764;2022-11-09T11:26:04;20.00;69.70
74657;DHT22;63185;45.642;13.764;2022-11-09T11:31:00;20.10;69.40
74657;DHT22;63185;45.642;13.764;2022-11-09T11:33:26;20.20;69.30
74657;DHT22;63185;45.642;13.764;2022-11-09T11:36:42;20.30;68.80
74657;DHT22;63185;45.642;13.764;2022-11-09T11:47:16;20.30;68.70
74657;DHT22;63185;45.642;13.764;2022-11-09T12:00:25;20.00;69.80
74657;DHT22;63185;45.642;13.764;2022-11-09T12:06:39;20.10;68.80
74657;DHT22;63185;45.642;13.764;2022-11-09T12:21:17;19.60;68.80
74657;DHT22;63185;45.642;13.764;2022-11-09T12:26:41;19.50;68.70
74657;DHT22;63185;45.642;13.764;2022-11-09T12:29:19;19.60;68.50
74657;DHT22;63185;45.642;13.764;2022-11-09T12:34:31;19.50;68.40
74657;DHT22;63185;45.642;13.764;2022-11-09T12:37:06;19.50;68.30
74657;DHT22;63185;45.642;13.764;2022-11-09T12:39:44;19.40;68.80
74657;DHT22;63185;45.642;13.764;2022-11-09T12:45:37;19.30;69.10
74657;DHT22;63185;45.642;13.764;2022-11-09T12:48:29;19.40;68.70
74657;DHT22;63185;45.642;13.764;2022-11-09T12:50:57;19.30;69.00
74657;DHT22;63185;45.642;13.764;2022-11-09T12:53:29;19.10;69.70
74657;DHT22;63185;45.642;13.764;2022-11-09T12:55:58;19.10;70.00
74657;DHT22;63185;45.642;13.764;2022-11-09T12:58:31;19.00;69.60
74657;DHT22;63185;45.642;13.764;2022-11-09T13:01:03;19.00;69.20
74657;DHT22;63185;45.642;13.764;2022-11-09T13:03:33;19.00;69.00
74657;DHT22;63185;45.642;13.764;2022-11-09T13:06:12;19.00;69.00
74657;DHT22;63185;45.642;13.764;2022-11-09T13:08:39;19.00;69.50
74657;DHT22;63185;45.642;13.764;2022-11-09T13:11:58;18.90;69.80
74657;DHT22;63185;45.642;13.764;2022-11-09T13:17:00;18.90;69.30
74657;DHT22;63185;45.642;13.764;2022-11-09T13:27:40;18.60;71.00
74657;DHT22;63185;45.642;13.764;2022-11-09T13:38:22;18.70;70.90
74657;DHT22;63185;45.642;13.764;2022-11-09T13:40:53;18.70;70.90
74657;DHT22;63185;45.642;13.764;2022-11-09T13:43:32;18.80;71.20
74657;DHT22;63185;45.642;13.764;2022-11-09T13:48:42;18.40;71.10
74657;DHT22;63185;45.642;13.764;2022-11-09T13:51:14;18.50;71.30
74657;DHT22;63185;45.642;13.764;2022-11-09T13:53:58;18.40;70.90
74657;DHT22;63185;45.642;13.764;2022-11-09T14:01:54;18.60;70.70
74657;DHT22;63185;45.642;13.764;2022-11-09T14:04:26;18.60;70.10
74657;DHT22;63185;45.642;13.764;2022-11-09T14:09:26;18.60;69.80
74657;DHT22;63185;45.642;13.764;2022-11-09T14:22:22;18.60;69.40
74657;DHT22;63185;45.642;13.764;2022-11-09T14:24:48;18.60;69.30
74657;DHT22;63185;45.642;13.764;2022-11-09T14:27:21;18.60;69.30
74657;DHT22;63185;45.642;13.764;2022-11-09T14:29:52;18.60;69.50
74657;DHT22;63185;45.642;13.764;2022-11-09T14:32:31;18.60;69.50
74657;DHT22;63185;45.642;13.764;2022-11-09T14:37:43;18.60;69.30
74657;DHT22;63185;45.642;13.764;2022-11-09T14:40:35;18.50;69.30
74657;DHT22;63185;45.642;13.764;2022-11-09T14:45:56;18.60;69.10
74657;DHT22;63185;45.642;13.764;2022-11-09T14:48:23;18.50;69.30
74657;DHT22;63185;45.642;13.764;2022-11-09T14:50:52;18.50;69.00
74657;DHT22;63185;45.642;13.764;2022-11-09T14:53:24;18.50;69.20
74657;DHT22;63185;45.642;13.764;2022-11-09T14:55:53;18.50;69.10
74657;DHT22;63185;45.642;13.764;2022-11-09T14:58:20;18.60;69.00
74657;DHT22;63185;45.642;13.764;2022-11-09T15:01:06;18.50;68.90
74657;DHT22;63185;45.642;13.764;2022-11-09T15:03:32;18.40;69.20
74657;DHT22;63185;45.642;13.764;2022-11-09T15:06:09;18.40;69.10
74657;DHT22;63185;45.642;13.764;2022-11-09T15:08:51;18.30;69.20
74657;DHT22;63185;45.642;13.764;2022-11-09T15:11:19;18.40;69.20
74657;DHT22;63185;45.642;13.764;2022-11-09T15:13:45;18.40;68.80
74657;DHT22;63185;45.642;13.764;2022-11-09T15:16:25;18.30;69.00
74657;DHT22;63185;45.642;13.764;2022-11-09T15:18:51;18.30;69.00
74657;DHT22;63185;45.642;13.764;2022-11-09T15:21:18;18.20;69.30
74657;DHT22;63185;45.642;13.764;2022-11-09T15:23:48;18.20;69.50
74657;DHT22;63185;45.642;13.764;2022-11-09T15:29:00;18.20;69.50
74657;DHT22;63185;45.642;13.764;2022-11-09T15:31:25;18.20;68.40
74657;DHT22;63185;45.642;13.764;2022-11-09T15:33:54;18.10;69.00
74657;DHT22;63185;45.642;13.764;2022-11-09T15:36:33;18.10;69.10
74657;DHT22;63185;45.642;13.764;2022-11-09T15:41:37;18.10;69.20
74657;DHT22;63185;45.642;13.764;2022-11-09T15:44:04;18.00;69.00
74657;DHT22;63185;45.642;13.764;2022-11-09T15:46:37;18.10;69.00
74657;DHT22;63185;45.642;13.764;2022-11-09T15:49:16;18.00;69.20
74657;DHT22;63185;45.642;13.764;2022-11-09T15:51:43;18.00;69.20
74657;DHT22;63185;45.642;13.764;2022-11-09T15:54:09;18.00;69.00
74657;DHT22;63185;45.642;13.764;2022-11-09T15:56:35;18.00;68.90
74657;DHT22;63185;45.642;13.764;2022-11-09T15:59:01;17.90;69.00
74657;DHT22;63185;45.642;13.764;2022-11-09T16:01:28;18.00;69.10
74657;DHT22;63185;45.642;13.764;2022-11-09T16:03:56;17.90;69.40
74657;DHT22;63185;45.642;13.764;2022-11-09T16:06:21;17.90;69.30
74657;DHT22;63185;45.642;13.764;2022-11-09T16:08:49;18.00;69.30
74657;DHT22;63185;45.642;13.764;2022-11-09T16:11:15;18.00;69.30
74657;DHT22;63185;45.642;13.764;2022-11-09T16:13:40;17.90;69.30
74657;DHT22;63185;45.642;13.764;2022-11-09T16:16:07;17.90;69.50
74657;DHT22;63185;45.642;13.764;2022-11-09T16:18:33;17.90;69.50
74657;DHT22;63185;45.642;13.764;2022-11-09T16:21:07;17.90;69.60
74657;DHT22;63185;45.642;13.764;2022-11-09T16:23:33;17.90;69.60
74657;DHT22;63185;45.642;13.764;2022-11-09T16:26:03;17.90;69.60
74657;DHT22;63185;45.642;13.764;2022-11-09T16:28:29;18.00;69.60
74657;DHT22;63185;45.642;13.764;2022-11-09T16:30:55;17.90;69.70
74657;DHT22;63185;45.642;13.764;2022-11-09T16:33:21;17.90;69.90
74657;DHT22;63185;45.642;13.764;2022-11-09T16:35:46;17.90;70.10
74657;DHT22;63185;45.642;13.764;2022-11-09T16:38:12;17.90;70.20
74657;DHT22;63185;45.642;13.764;2022-11-09T16:40:38;17.90;70.20
74657;DHT22;63185;45.642;13.764;2022-11-09T16:43:04;17.80;70.50
74657;DHT22;63185;45.642;13.764;2022-11-09T16:45:29;17.80;70.60
74657;DHT22;63185;45.642;13.764;2022-11-09T16:47:55;17.80;70.70
74657;DHT22;63185;45.642;13.764;2022-11-09T16:50:22;17.80;70.70
74657;DHT22;63185;45.642;13.764;2022-11-09T16:52:48;17.90;70.90
74657;DHT22;63185;45.642;13.764;2022-11-09T16:55:13;17.80;71.10
74657;DHT22;63185;45.642;13.764;2022-11-09T16:57:39;17.80;71.40
74657;DHT22;63185;45.642;13.764;2022-11-09T17:00:06;17.80;71.40
74657;DHT22;63185;45.642;13.764;2022-11-09T17:02:33;17.80;71.40
74657;DHT22;63185;45.642;13.764;2022-11-09T17:04:59;17.80;71.30
74657;DHT22;63185;45.642;13.764;2022-11-09T17:07:24;17.90;71.20
74657;DHT22;63185;45.642;13.764;2022-11-09T17:09:50;17.90;71.20
74657;DHT22;63185;45.642;13.764;2022-11-09T17:12:16;17.90;71.10
74657;DHT22;63185;45.642;13.764;2022-11-09T17:14:41;17.90;71.10
74657;DHT22;63185;45.642;13.764;2022-11-09T17:17:07;17.90;71.10
74657;DHT22;63185;45.642;13.764;2022-11-09T17:19:34;17.90;71.20
74657;DHT22;63185;45.642;13.764;2022-11-09T17:21:59;18.00;71.20
74657;DHT22;63185;45.642;13.764;2022-11-09T17:24:26;18.00;71.20
74657;DHT22;63185;45.642;13.764;2022-11-09T17:26:52;18.00;71.20
74657;DHT22;63185;45.642;13.764;2022-11-09T17:29:17;17.90;71.20
74657;DHT22;63185;45.642;13.764;2022-11-09T17:31:43;18.00;71.20
74657;DHT22;63185;45.642;13.764;2022-11-09T17:34:10;18.00;71.30
74657;DHT22;63185;45.642;13.764;2022-11-09T17:36:37;18.00;71.80
74657;DHT22;63185;45.642;13.764;2022-11-09T17:39:03;18.00;72.50
74657;DHT22;63185;45.642;13.764;2022-11-09T17:41:29;17.90;72.80